createdAt,value
2018-09-29T00:02:17.128Z,102998.40
2018-09-29T00:04:44.720Z,103004.54
2018-09-29T00:07:12.683Z,102997.06
2018-09-29T00:09:40.283Z,102999.29
2018-09-29T00:12:07.967Z,102994.02
2018-09-29T00:14:35.584Z,102995.77
2018-09-29T00:17:03.221Z,102990.97
2018-09-29T00:19:30.831Z,102994.89
2018-09-29T00:21:58.454Z,102998.81
2018-09-29T00:24:26.016Z,102997.92
2018-09-29T00:26:53.699Z,103000.96
2018-09-29T00:29:21.295Z,103006.63
2018-09-29T00:31:48.881Z,103002.70
2018-09-29T00:34:16.512Z,103004.00
2018-09-29T00:36:44.089Z,103001.81
2018-09-29T00:39:11.735Z,103006.16
2018-09-29T00:41:39.295Z,103002.22
2018-09-29T00:44:06.872Z,102993.92
2018-09-29T00:46:34.497Z,102991.31
2018-09-29T00:49:02.148Z,102991.72
2018-09-29T00:51:29.742Z,103002.65
2018-09-29T00:53:57.320Z,102998.27
2018-09-29T00:56:25.170Z,103003.09
2018-09-29T00:58:52.761Z,102993.03
2018-09-29T01:01:20.348Z,102993.02
2018-09-29T01:03:47.984Z,102989.92
2018-09-29T01:06:15.583Z,102988.17
2018-09-29T01:08:43.156Z,102985.11
2018-09-29T01:11:10.791Z,102982.92
2018-09-29T01:13:38.379Z,102981.59
2018-09-29T01:16:05.936Z,102979.84
2018-09-29T01:18:33.535Z,102987.27
2018-09-29T01:21:01.408Z,102987.25
2018-09-29T01:23:29.027Z,102994.69
2018-09-29T01:25:56.639Z,102995.13
2018-09-29T01:28:24.242Z,102989.88
2018-09-29T01:30:51.851Z,102988.14
2018-09-29T01:33:19.542Z,102991.61
2018-09-29T01:35:47.140Z,103002.98
2018-09-29T01:38:14.738Z,103009.55
2018-09-29T01:40:42.336Z,103000.81
2018-09-29T01:46:00.324Z,102989.86
2018-09-29T01:48:28.308Z,102987.69
2018-09-29T01:50:55.963Z,102981.10
2018-09-29T01:53:23.592Z,102974.98
2018-09-29T01:55:51.170Z,102969.31
2018-09-29T01:58:18.755Z,102971.94
2018-09-29T02:00:46.368Z,102967.09
2018-09-29T02:03:14.020Z,102966.64
2018-09-29T02:05:42.311Z,102970.59
2018-09-29T02:08:09.926Z,102968.36
2018-09-29T02:10:37.501Z,102964.89
2018-09-29T02:13:05.131Z,102967.94
2018-09-29T02:15:33.532Z,102965.73
2018-09-29T02:18:01.209Z,102973.61
2018-09-29T02:20:29.062Z,102962.67
2018-09-29T02:22:56.674Z,102964.86
2018-09-29T02:25:24.580Z,102955.25
2018-09-29T02:27:52.211Z,102963.55
2018-09-29T02:30:20.083Z,102965.30
2018-09-29T02:32:47.753Z,102965.30
2018-09-29T02:35:15.311Z,102967.05
2018-09-29T02:37:43.027Z,102975.31
2018-09-29T02:40:10.588Z,102967.42
2018-09-29T02:42:38.177Z,102972.66
2018-09-29T02:45:06.302Z,102965.70
2018-09-29T02:47:33.917Z,102969.23
2018-09-29T02:50:01.526Z,102970.06
2018-09-29T02:52:29.148Z,102969.19
2018-09-29T02:54:56.788Z,102972.20
2018-09-29T02:57:24.382Z,102975.27
2018-09-29T02:59:51.987Z,102985.76
2018-09-29T03:02:19.634Z,102973.93
2018-09-29T03:04:47.231Z,102978.30
2018-09-29T03:07:14.886Z,102973.03
2018-09-29T03:09:42.455Z,102972.59
2018-09-29T03:12:10.039Z,102975.17
2018-09-29T03:14:37.648Z,102972.98
2018-09-29T03:17:05.271Z,102972.55
2018-09-29T03:19:32.868Z,102968.16
2018-09-29T03:22:00.448Z,102967.73
2018-09-29T03:24:28.086Z,102955.05
2018-09-29T03:26:55.675Z,102953.27
2018-09-29T03:29:23.296Z,102953.72
2018-09-29T03:31:51.013Z,102955.89
2018-09-29T03:34:18.560Z,102952.42
2018-09-29T03:36:46.240Z,102949.78
2018-09-29T03:39:13.838Z,102955.88
2018-09-29T03:41:41.452Z,102947.55
2018-09-29T03:44:09.517Z,102947.54
2018-09-29T03:46:37.170Z,102951.47
2018-09-29T03:49:04.737Z,102954.97
2018-09-29T03:51:32.342Z,102951.47
2018-09-29T03:54:00.199Z,102951.48
2018-09-29T03:56:27.796Z,102955.84
2018-09-29T03:58:55.380Z,102954.09
2018-09-29T04:01:23.044Z,102955.40
2018-09-29T04:03:50.625Z,102958.42
2018-09-29T04:06:18.197Z,102953.61
2018-09-29T04:08:45.832Z,102949.69
2018-09-29T04:11:13.442Z,102955.77
2018-09-29T04:13:41.057Z,102962.35
2018-09-29T04:16:08.656Z,102951.44
2018-09-29T04:18:36.260Z,102948.84
2018-09-29T04:21:03.918Z,102954.53
2018-09-29T04:23:31.505Z,102954.94
2018-09-29T04:25:59.114Z,102966.74
2018-09-29T04:28:26.719Z,102964.09
2018-09-29T04:30:54.337Z,102965.43
2018-09-29T04:33:21.968Z,102966.29
2018-09-29T04:35:49.547Z,102972.84
2018-09-29T04:38:17.532Z,102971.53
2018-09-29T04:40:45.105Z,102957.95
2018-09-29T04:43:12.749Z,102956.64
2018-09-29T04:45:40.319Z,102955.36
2018-09-29T04:48:07.928Z,102955.37
2018-09-29T04:50:35.544Z,102960.64
2018-09-29T04:53:03.120Z,102958.02
2018-09-29T04:55:30.758Z,102962.80
2018-09-29T04:57:58.347Z,102960.60
2018-09-29T05:00:26.024Z,102957.98
2018-09-29T05:02:53.625Z,102961.05
2018-09-29T05:05:21.208Z,102963.67
2018-09-29T05:07:48.811Z,102966.73
2018-09-29T05:10:16.415Z,102967.62
2018-09-29T05:12:43.988Z,102975.47
2018-09-29T05:15:11.708Z,102977.66
2018-09-29T05:17:39.329Z,102976.78
2018-09-29T05:20:07.192Z,102978.53
2018-09-29T05:22:34.756Z,102974.60
2018-09-29T05:25:02.326Z,102975.92
2018-09-29T05:27:29.938Z,102970.22
2018-09-29T05:29:57.543Z,102973.77
2018-09-29T05:32:25.168Z,102976.37
2018-09-29T05:34:52.732Z,102964.12
2018-09-29T05:37:20.304Z,102965.02
2018-09-29T05:39:47.848Z,102961.97
2018-09-29T05:42:15.431Z,102967.22
2018-09-29T05:44:42.991Z,102960.23
2018-09-29T05:47:10.642Z,102960.21
2018-09-29T05:49:38.240Z,102953.22
2018-09-29T05:52:05.894Z,102949.26
2018-09-29T05:54:33.746Z,102947.53
2018-09-29T05:57:01.355Z,102948.01
2018-09-29T05:59:29.001Z,102946.24
2018-09-29T06:01:56.719Z,102946.70
2018-09-29T06:04:24.516Z,102943.62
2018-09-29T06:06:52.125Z,102946.22
2018-09-29T06:09:19.711Z,102940.56
2018-09-29T06:11:47.323Z,102944.94
2018-09-29T06:14:14.901Z,102945.41
2018-09-29T06:16:42.523Z,102955.89
2018-09-29T06:19:10.116Z,102950.66
2018-09-29T06:21:37.680Z,102952.84
2018-09-29T06:24:05.314Z,102959.83
2018-09-29T06:26:32.903Z,102964.22
2018-09-29T06:29:00.476Z,102964.22
2018-09-29T06:31:28.088Z,102970.32
2018-09-29T06:33:55.668Z,102975.17
2018-09-29T06:36:23.244Z,102968.61
2018-09-29T06:38:50.847Z,102969.49
2018-09-29T06:41:18.500Z,102958.16
2018-09-29T06:43:46.084Z,102955.54
2018-09-29T06:46:13.657Z,102951.63
2018-09-29T06:48:41.263Z,102946.84
2018-09-29T06:51:08.831Z,102946.84
2018-09-29T06:53:36.558Z,102950.80
2018-09-29T06:56:04.148Z,102952.11
2018-09-29T06:58:31.715Z,102958.69
2018-09-29T07:00:59.313Z,102954.30
2018-09-29T07:03:26.903Z,102950.38
2018-09-29T07:05:54.480Z,102946.48
2018-09-29T07:08:22.097Z,102948.23
2018-09-29T07:10:49.724Z,102949.55
2018-09-29T07:13:17.304Z,102954.39
2018-09-29T07:15:44.886Z,102958.77
2018-09-29T07:18:12.517Z,102966.67
2018-09-29T07:20:40.104Z,102966.67
2018-09-29T07:23:07.685Z,102968.44
2018-09-29T07:25:35.374Z,102971.48
2018-09-29T07:28:02.954Z,102968.39
2018-09-29T07:30:30.568Z,102970.16
2018-09-29T07:32:58.175Z,102967.09
2018-09-29T07:35:25.811Z,102970.15
2018-09-29T07:37:53.364Z,102975.44
2018-09-29T07:40:20.983Z,102974.56
2018-09-29T07:42:48.575Z,102982.92
2018-09-29T07:45:16.216Z,102982.06
2018-09-29T07:47:43.794Z,102987.79
2018-09-29T07:50:11.433Z,102982.98
2018-09-29T07:52:39.056Z,102988.25
2018-09-29T07:55:06.646Z,102987.85
2018-09-29T07:57:34.243Z,102982.17
2018-09-29T08:00:01.890Z,102980.45
2018-09-29T08:02:29.499Z,102976.97
2018-09-29T08:04:57.300Z,102982.26
2018-09-29T08:07:24.891Z,102981.42
2018-09-29T08:09:52.450Z,102989.35
2018-09-29T08:12:20.091Z,102986.31
2018-09-29T08:14:47.670Z,102996.36
2018-09-29T08:17:15.282Z,102994.62
2018-09-29T08:19:42.888Z,103002.52
2018-09-29T08:22:10.479Z,103000.33
2018-09-29T08:24:38.072Z,102998.16
2018-09-29T08:27:05.660Z,103006.94
2018-09-29T08:29:33.239Z,103007.38
2018-09-29T08:32:00.888Z,103002.13
2018-09-29T08:34:28.470Z,102995.97
2018-09-29T08:36:56.035Z,102994.27
2018-09-29T08:39:23.658Z,102994.73
2018-09-29T08:41:51.321Z,102992.96
2018-09-29T08:44:18.943Z,102982.02
2018-09-29T08:46:46.589Z,102988.14
2018-09-29T08:49:14.168Z,102990.77
2018-09-29T08:51:41.766Z,102991.27
2018-09-29T08:54:09.662Z,102979.42
2018-09-29T08:56:37.287Z,102985.98
2018-09-29T08:59:04.904Z,102982.52
2018-09-29T09:01:32.587Z,102980.77
2018-09-29T09:04:00.356Z,102975.50
2018-09-29T09:06:27.985Z,102979.45
2018-09-29T09:08:55.648Z,102975.52
2018-09-29T09:11:23.239Z,102973.78
2018-09-29T09:13:50.804Z,102975.52
2018-09-29T09:16:18.419Z,102975.11
2018-09-29T09:18:46.058Z,102971.16
2018-09-29T09:21:13.697Z,102966.83
2018-09-29T09:23:41.311Z,102964.66
2018-09-29T09:26:08.888Z,102967.73
2018-09-29T09:28:36.520Z,102965.13
2018-09-29T09:31:04.148Z,102959.40
2018-09-29T09:33:31.725Z,102950.67
2018-09-29T09:35:59.371Z,102950.66
2018-09-29T09:38:26.987Z,102949.73
2018-09-29T09:40:54.572Z,102949.73
2018-09-29T09:43:22.179Z,102947.55
2018-09-29T09:45:49.883Z,102949.73
2018-09-29T09:48:17.484Z,102951.92
2018-09-29T09:50:45.300Z,102948.39
2018-09-29T09:53:12.899Z,102949.30
2018-09-29T09:55:40.479Z,102949.73
2018-09-29T09:58:08.080Z,102951.47
2018-09-29T10:00:41.356Z,102943.19
2018-09-29T10:03:14.660Z,102942.32
2018-09-29T10:05:42.280Z,102938.81
2018-09-29T10:08:09.885Z,102942.78
2018-09-29T10:10:37.484Z,102935.34
2018-09-29T10:13:05.104Z,102935.77
2018-09-29T10:15:32.704Z,102937.98
2018-09-29T10:18:00.296Z,102933.59
2018-09-29T10:20:27.863Z,102935.75
2018-09-29T10:22:55.475Z,102928.33
2018-09-29T10:25:23.079Z,102927.02
2018-09-29T10:27:50.958Z,102923.52
2018-09-29T10:30:18.499Z,102922.67
2018-09-29T10:32:46.189Z,102920.48
2018-09-29T10:35:13.812Z,102918.33
2018-09-29T10:37:41.448Z,102920.09
2018-09-29T10:40:09.076Z,102909.16
2018-09-29T10:42:36.662Z,102906.98
2018-09-29T10:45:04.327Z,102900.89
2018-09-29T10:47:31.966Z,102892.58
2018-09-29T10:49:59.906Z,102892.20
2018-09-29T10:52:27.495Z,102886.09
2018-09-29T10:54:55.102Z,102872.95
2018-09-29T10:57:22.828Z,102882.61
2018-09-29T10:59:50.800Z,102880.42
2018-09-29T11:02:18.616Z,102874.70
2018-09-29T11:04:46.188Z,102878.23
2018-09-29T11:07:13.823Z,102876.03
2018-09-29T11:09:41.420Z,102870.77
2018-09-29T11:12:09.063Z,102867.70
2018-09-29T11:14:36.669Z,102864.64
2018-09-29T11:17:04.268Z,102863.30
2018-09-29T11:19:31.832Z,102858.91
2018-09-29T11:21:59.429Z,102855.39
2018-09-29T11:24:27.000Z,102856.66
2018-09-29T11:26:54.583Z,102850.05
2018-09-29T11:29:22.149Z,102844.78
2018-09-29T11:31:49.787Z,102846.98
2018-09-29T11:34:17.367Z,102843.94
2018-09-29T11:36:44.959Z,102835.17
2018-09-29T11:39:12.999Z,102828.14
2018-09-29T11:41:40.879Z,102830.34
2018-09-29T11:44:08.899Z,102827.72
2018-09-29T11:46:36.534Z,102823.78
2018-09-29T11:49:04.152Z,102819.89
2018-09-29T11:51:31.756Z,102813.30
2018-09-29T11:53:59.616Z,102815.94
2018-09-29T11:56:27.243Z,102811.11
2018-09-29T11:58:55.048Z,102806.31
2018-09-29T12:01:22.667Z,102797.98
2018-09-29T12:03:50.272Z,102798.42
2018-09-29T12:06:17.907Z,102790.53
2018-09-29T12:08:45.591Z,102787.02
2018-09-29T12:11:13.237Z,102784.81
2018-09-29T12:13:40.845Z,102782.63
2018-09-29T12:16:08.600Z,102782.20
2018-09-29T12:18:36.229Z,102782.64
2018-09-29T12:21:04.033Z,102769.94
2018-09-29T12:23:31.658Z,102774.32
2018-09-29T12:25:59.244Z,102770.38
2018-09-29T12:28:26.832Z,102765.55
2018-09-29T12:30:54.424Z,102764.66
2018-09-29T12:33:22.124Z,102760.27
2018-09-29T12:35:49.750Z,102753.71
2018-09-29T12:38:17.367Z,102755.00
2018-09-29T12:40:44.956Z,102745.81
2018-09-29T12:43:12.543Z,102743.17
2018-09-29T12:45:40.144Z,102740.55
2018-09-29T12:48:07.739Z,102740.12
2018-09-29T12:50:35.358Z,102728.27
2018-09-29T12:53:02.992Z,102721.27
2018-09-29T12:55:30.562Z,102716.44
2018-09-29T12:57:58.184Z,102718.16
2018-09-29T13:00:25.802Z,102712.02
2018-09-29T13:02:53.384Z,102714.65
2018-09-29T13:05:21.248Z,102704.11
2018-09-29T13:07:48.839Z,102711.14
2018-09-29T13:10:16.453Z,102706.79
2018-09-29T13:12:44.105Z,102700.20
2018-09-29T13:15:11.694Z,102696.28
2018-09-29T13:17:39.309Z,102698.48
2018-09-29T13:20:06.992Z,102690.15
2018-09-29T13:22:34.642Z,102689.25
2018-09-29T13:25:02.285Z,102691.90
2018-09-29T13:27:29.885Z,102694.98
2018-09-29T13:29:57.531Z,102692.77
2018-09-29T13:32:25.136Z,102694.08
2018-09-29T13:34:52.818Z,102693.67
2018-09-29T13:37:20.477Z,102681.83
2018-09-29T13:39:48.126Z,102683.14
2018-09-29T13:42:15.741Z,102686.65
2018-09-29T13:44:43.361Z,102676.55
2018-09-29T13:47:10.977Z,102674.37
2018-09-29T13:49:38.559Z,102667.76
2018-09-29T13:52:06.218Z,102669.95
2018-09-29T13:54:33.839Z,102669.06
2018-09-29T13:57:01.441Z,102673.03
2018-09-29T13:59:29.031Z,102667.77
2018-09-29T14:01:56.590Z,102665.14
2018-09-29T14:04:24.175Z,102664.25
2018-09-29T14:06:51.800Z,102658.13
2018-09-29T14:09:19.445Z,102655.50
2018-09-29T14:11:47.074Z,102646.73
2018-09-29T14:14:14.648Z,102644.98
2018-09-29T14:16:42.216Z,102644.98
2018-09-29T14:19:10.125Z,102635.31
2018-09-29T14:21:37.699Z,102635.78
2018-09-29T14:24:05.279Z,102632.72
2018-09-29T14:26:32.888Z,102620.00
2018-09-29T14:29:00.508Z,102616.48
2018-09-29T14:31:28.075Z,102614.73
2018-09-29T14:33:55.733Z,102605.11
2018-09-29T14:36:23.350Z,102602.91
2018-09-29T14:38:50.965Z,102603.80
2018-09-29T14:41:18.617Z,102600.71
2018-09-29T14:43:46.228Z,102596.78
2018-09-29T14:46:13.823Z,102592.81
2018-09-29T14:48:41.428Z,102590.63
2018-09-29T14:51:09.050Z,102591.55
2018-09-29T14:53:36.622Z,102590.23
2018-09-29T14:56:04.239Z,102590.04
2018-09-29T14:58:31.833Z,102581.96
2018-09-29T15:00:59.479Z,102584.66
2018-09-29T15:03:27.084Z,102580.52
2018-09-29T15:05:54.674Z,102584.06
2018-09-29T15:08:22.248Z,102576.33
2018-09-29T15:10:49.864Z,102572.46
2018-09-29T15:13:17.481Z,102574.28
2018-09-29T15:15:45.071Z,102570.38
2018-09-29T15:18:12.679Z,102565.11
2018-09-29T15:20:40.232Z,102562.05
2018-09-29T15:23:07.862Z,102566.00
2018-09-29T15:25:35.433Z,102558.75
2018-09-29T15:28:03.042Z,102555.69
2018-09-29T15:30:30.624Z,102558.39
2018-09-29T15:32:58.257Z,102551.30
2018-09-29T15:35:25.841Z,102554.30
2018-09-29T15:37:53.433Z,102557.95
2018-09-29T15:40:21.057Z,102549.19
2018-09-29T15:42:48.750Z,102557.53
2018-09-29T15:45:16.239Z,102544.39
2018-09-29T15:47:43.831Z,102540.06
2018-09-29T15:50:11.429Z,102548.00
2018-09-29T15:52:39.005Z,102544.05
2018-09-29T15:55:06.708Z,102541.00
2018-09-29T15:57:34.258Z,102537.48
2018-09-29T16:00:01.845Z,102540.15
2018-09-29T16:02:29.412Z,102540.61
2018-09-29T16:04:57.006Z,102537.12
2018-09-29T16:07:25.288Z,102538.45
2018-09-29T16:09:52.967Z,102540.64
2018-09-29T16:12:20.598Z,102535.84
2018-09-29T16:14:48.223Z,102529.69
2018-09-29T16:17:15.853Z,102531.47
2018-09-29T16:19:43.501Z,102533.67
2018-09-29T16:22:11.052Z,102532.35
2018-09-29T16:24:38.656Z,102523.17
2018-09-29T16:27:06.326Z,102528.44
2018-09-29T16:29:33.925Z,102524.03
2018-09-29T16:32:01.852Z,102516.99
2018-09-29T16:34:29.372Z,102510.88
2018-09-29T16:36:56.932Z,102513.50
2018-09-29T16:39:24.592Z,102506.50
2018-09-29T16:41:52.171Z,102512.64
2018-09-29T16:44:19.777Z,102511.33
2018-09-29T16:46:47.396Z,102506.52
2018-09-29T16:49:15.003Z,102506.52
2018-09-29T16:51:42.605Z,102502.14
2018-09-29T16:54:10.227Z,102503.46
2018-09-29T16:56:37.817Z,102506.09
2018-09-29T16:59:05.451Z,102511.80
2018-09-29T17:01:33.044Z,102506.53
2018-09-29T17:04:00.840Z,102508.73
2018-09-29T17:06:28.244Z,102514.45
2018-09-29T17:08:55.795Z,102518.81
2018-09-29T17:11:23.418Z,102514.44
2018-09-29T17:13:51.031Z,102512.70
2018-09-29T17:16:18.751Z,102511.80
2018-09-29T17:18:46.335Z,102513.58
2018-09-29T17:21:13.915Z,102511.37
2018-09-29T17:23:41.545Z,102508.73
2018-09-29T17:26:09.383Z,102511.39
2018-09-29T17:28:36.968Z,102507.45
2018-09-29T17:31:04.524Z,102498.68
2018-09-29T17:33:32.136Z,102495.63
2018-09-29T17:35:59.729Z,102497.82
2018-09-29T17:38:27.351Z,102500.45
2018-09-29T17:40:54.940Z,102501.75
2018-09-29T17:43:22.552Z,102502.63
2018-09-29T17:45:50.170Z,102502.63
2018-09-29T17:48:17.756Z,102503.05
2018-09-29T17:50:45.322Z,102500.00
2018-09-29T17:53:12.941Z,102502.20
2018-09-29T17:55:40.503Z,102505.25
2018-09-29T17:58:08.077Z,102500.45
2018-09-29T18:00:35.724Z,102495.61
2018-09-29T18:03:03.301Z,102489.93
2018-09-29T18:05:30.914Z,102484.25
2018-09-29T18:07:58.513Z,102488.61
2018-09-29T18:10:26.159Z,102489.04
2018-09-29T18:12:53.793Z,102487.73
2018-09-29T18:15:21.400Z,102487.30
2018-09-29T18:17:49.044Z,102486.87
2018-09-29T18:20:16.620Z,102485.55
2018-09-29T18:22:44.231Z,102485.55
2018-09-29T18:25:11.788Z,102475.03
2018-09-29T18:27:39.392Z,102469.36
2018-09-29T18:30:07.052Z,102475.50
2018-09-29T18:32:34.685Z,102468.92
2018-09-29T18:35:02.264Z,102469.81
2018-09-29T18:37:29.928Z,102470.23
2018-09-29T18:39:57.512Z,102468.91
2018-09-29T18:42:25.099Z,102467.17
2018-09-29T18:44:52.709Z,102457.97
2018-09-29T18:47:20.324Z,102460.17
2018-09-29T18:49:47.912Z,102464.11
2018-09-29T18:52:15.503Z,102460.59
2018-09-29T18:54:43.126Z,102461.05
2018-09-29T18:57:10.716Z,102456.22
2018-09-29T18:59:38.322Z,102462.78
2018-09-29T19:02:05.886Z,102452.30
2018-09-29T19:04:33.532Z,102451.80
2018-09-29T19:07:01.108Z,102449.18
2018-09-29T19:09:28.708Z,102443.50
2018-09-29T19:11:56.446Z,102446.58
2018-09-29T19:14:24.016Z,102447.42
2018-09-29T19:16:51.632Z,102443.06
2018-09-29T19:19:19.279Z,102445.26
2018-09-29T19:21:46.896Z,102437.38
2018-09-29T19:24:14.488Z,102435.63
2018-09-29T19:26:42.115Z,102436.52
2018-09-29T19:29:09.763Z,102431.69
2018-09-29T19:31:37.375Z,102433.89
2018-09-29T19:34:05.883Z,102432.58
2018-09-29T19:36:33.472Z,102431.25
2018-09-29T19:39:01.076Z,102427.73
2018-09-29T19:41:28.692Z,102432.98
2018-09-29T19:43:56.284Z,102426.42
2018-09-29T19:46:23.916Z,102424.67
2018-09-29T19:48:51.491Z,102418.57
2018-09-29T19:51:19.112Z,102424.67
2018-09-29T19:53:46.964Z,102417.26
2018-09-29T19:56:14.570Z,102417.68
2018-09-29T19:58:42.180Z,102412.43
2018-09-29T20:01:09.759Z,102410.69
2018-09-29T20:03:37.394Z,102405.86
2018-09-29T20:08:39.357Z,102404.11
2018-09-29T20:11:06.930Z,102402.82
2018-09-29T20:13:34.529Z,102405.45
2018-09-29T20:16:02.139Z,102400.62
2018-09-29T20:18:29.699Z,102397.10
2018-09-29T20:20:57.364Z,102392.74
2018-09-29T20:23:24.918Z,102389.25
2018-09-29T20:25:52.517Z,102386.63
2018-09-29T20:28:20.107Z,102381.38
2018-09-29T20:30:47.736Z,102373.50
2018-09-29T20:33:15.363Z,102378.32
2018-09-29T20:35:42.928Z,102377.86
2018-09-29T20:38:10.597Z,102374.80
2018-09-29T20:40:38.169Z,102372.63
2018-09-29T20:43:05.993Z,102369.13
2018-09-29T20:45:33.582Z,102360.82
2018-09-29T20:48:01.236Z,102357.77
2018-09-29T20:50:28.767Z,102356.88
2018-09-29T20:52:56.387Z,102353.36
2018-09-29T20:55:24.021Z,102349.45
2018-09-29T20:57:51.583Z,102352.08
2018-09-29T21:00:19.176Z,102346.38
2018-09-29T21:02:46.923Z,102344.20
2018-09-29T21:05:14.519Z,102332.82
2018-09-29T21:07:42.150Z,102326.69
2018-09-29T21:10:09.733Z,102320.58
2018-09-29T21:12:37.291Z,102321.89
2018-09-29T21:15:04.894Z,102322.77
2018-09-29T21:17:32.494Z,102311.84
2018-09-29T21:20:00.194Z,102312.28
2018-09-29T21:22:27.848Z,102313.58
2018-09-29T21:24:55.443Z,102305.71
2018-09-29T21:27:23.042Z,102301.34
2018-09-29T21:29:51.000Z,102299.14
2018-09-29T21:32:18.583Z,102291.27
2018-09-29T21:34:46.200Z,102280.80
2018-09-29T21:37:13.825Z,102279.03
2018-09-29T21:39:41.396Z,102278.17
2018-09-29T21:42:08.999Z,102276.86
2018-09-29T21:44:36.585Z,102277.73
2018-09-29T21:47:04.185Z,102277.73
2018-09-29T21:49:31.745Z,102278.59
2018-09-29T21:51:59.356Z,102273.34
2018-09-29T21:54:26.936Z,102266.81
2018-09-29T21:56:54.565Z,102262.41
2018-09-29T21:59:22.176Z,102258.94
2018-09-29T22:01:49.747Z,102254.55
2018-09-29T22:04:17.369Z,102249.33
2018-09-29T22:06:44.943Z,102252.80
2018-09-29T22:09:17.030Z,102247.58
2018-09-29T22:11:44.636Z,102248.00
2018-09-29T22:14:12.216Z,102241.02
2018-09-29T22:16:39.789Z,102239.28
2018-09-29T22:19:07.372Z,102239.27
2018-09-29T22:21:34.940Z,102238.39
2018-09-29T22:24:02.544Z,102229.20
2018-09-29T22:26:30.100Z,102230.97
2018-09-29T22:28:57.686Z,102230.09
2018-09-29T22:31:25.296Z,102227.88
2018-09-29T22:33:53.173Z,102224.41
2018-09-29T22:36:20.780Z,102224.86
2018-09-29T22:38:48.378Z,102219.61
2018-09-29T22:41:16.273Z,102223.97
2018-09-29T22:43:43.870Z,102221.34
2018-09-29T22:46:11.411Z,102212.16
2018-09-29T22:48:39.017Z,102211.31
2018-09-29T22:51:06.604Z,102203.86
2018-09-29T22:53:34.225Z,102203.86
2018-09-29T22:56:01.885Z,102196.41
2018-09-29T22:58:29.488Z,102196.84
2018-09-29T23:00:57.061Z,102189.43
2018-09-29T23:03:24.684Z,102190.73
2018-09-29T23:05:52.248Z,102188.11
2018-09-29T23:08:19.880Z,102194.22
2018-09-29T23:10:47.477Z,102184.60
2018-09-29T23:13:15.098Z,102181.98
2018-09-29T23:15:42.708Z,102182.86
2018-09-29T23:18:10.301Z,102182.44
2018-09-29T23:20:37.911Z,102177.19
2018-09-29T23:23:05.489Z,102176.73
2018-09-29T23:25:33.091Z,102174.99
2018-09-29T23:28:00.645Z,102177.61
2018-09-29T23:30:28.269Z,102173.24
2018-09-29T23:32:55.865Z,102174.55
2018-09-29T23:35:23.788Z,102171.51
2018-09-29T23:37:51.420Z,102171.94
2018-09-29T23:40:18.986Z,102164.09
2018-09-29T23:42:46.597Z,102166.26
2018-09-29T23:45:14.151Z,102166.68
2018-09-29T23:47:41.768Z,102163.63
2018-09-29T23:50:09.360Z,102155.77
2018-09-29T23:52:36.993Z,102148.78
2018-09-29T23:55:04.603Z,102143.11
2018-09-29T23:57:32.173Z,102149.67
2018-09-29T23:59:59.752Z,102146.16
